sensor_id;sensor_type;location;lat;lon;timestamp;P1;durP1;ratioP1;P2;durP2;ratioP2
58621;SDS011;44389;51.578;5.456;2022-08-03T00:01:18;17.85;;;6.78;;
58621;SDS011;44389;51.578;5.456;2022-08-03T00:03:44;12.77;;;6.07;;
58621;SDS011;44389;51.578;5.456;2022-08-03T00:06:09;16.40;;;5.95;;
58621;SDS011;44389;51.578;5.456;2022-08-03T00:08:34;16.48;;;6.43;;
58621;SDS011;44389;51.578;5.456;2022-08-03T00:11:00;12.65;;;6.30;;
58621;SDS011;44389;51.578;5.456;2022-08-03T00:13:25;13.88;;;6.15;;
58621;SDS011;44389;51.578;5.456;2022-08-03T00:15:51;15.27;;;5.65;;
58621;SDS011;44389;51.578;5.456;2022-08-03T00:18:16;13.73;;;5.97;;
58621;SDS011;44389;51.578;5.456;2022-08-03T00:20:42;12.77;;;6.28;;
58621;SDS011;44389;51.578;5.456;2022-08-03T00:23:07;12.90;;;6.00;;
58621;SDS011;44389;51.578;5.456;2022-08-03T00:25:33;13.73;;;6.30;;
58621;SDS011;44389;51.578;5.456;2022-08-03T00:27:59;17.77;;;6.45;;
58621;SDS011;44389;51.578;5.456;2022-08-03T00:30:25;15.68;;;6.35;;
58621;SDS011;44389;51.578;5.456;2022-08-03T00:32:50;17.13;;;6.75;;
58621;SDS011;44389;51.578;5.456;2022-08-03T00:35:15;16.33;;;6.68;;
58621;SDS011;44389;51.578;5.456;2022-08-03T00:37:41;15.88;;;7.43;;
58621;SDS011;44389;51.578;5.456;2022-08-03T00:40:06;14.82;;;6.53;;
58621;SDS011;44389;51.578;5.456;2022-08-03T00:42:33;17.92;;;8.38;;
58621;SDS011;44389;51.578;5.456;2022-08-03T00:44:58;16.77;;;8.70;;
58621;SDS011;44389;51.578;5.456;2022-08-03T00:47:23;15.55;;;7.55;;
58621;SDS011;44389;51.578;5.456;2022-08-03T00:49:48;14.88;;;7.50;;
58621;SDS011;44389;51.578;5.456;2022-08-03T00:52:14;14.70;;;8.48;;
58621;SDS011;44389;51.578;5.456;2022-08-03T00:54:40;18.25;;;7.95;;
58621;SDS011;44389;51.578;5.456;2022-08-03T00:57:06;17.60;;;8.05;;
58621;SDS011;44389;51.578;5.456;2022-08-03T00:59:31;17.35;;;7.70;;
58621;SDS011;44389;51.578;5.456;2022-08-03T01:01:57;17.42;;;7.55;;
58621;SDS011;44389;51.578;5.456;2022-08-03T01:04:23;19.38;;;8.02;;
58621;SDS011;44389;51.578;5.456;2022-08-03T01:06:56;17.58;;;7.70;;
58621;SDS011;44389;51.578;5.456;2022-08-03T01:11:54;15.87;;;7.73;;
58621;SDS011;44389;51.578;5.456;2022-08-03T01:14:44;16.15;;;7.03;;
58621;SDS011;44389;51.578;5.456;2022-08-03T01:17:33;14.77;;;7.53;;
58621;SDS011;44389;51.578;5.456;2022-08-03T01:20:05;13.00;;;7.40;;
58621;SDS011;44389;51.578;5.456;2022-08-03T01:25:39;12.02;;;6.80;;
58621;SDS011;44389;51.578;5.456;2022-08-03T01:31:22;19.55;;;11.52;;
58621;SDS011;44389;51.578;5.456;2022-08-03T01:33:56;21.80;;;10.65;;
58621;SDS011;44389;51.578;5.456;2022-08-03T01:36:31;16.17;;;9.00;;
58621;SDS011;44389;51.578;5.456;2022-08-03T01:39:00;15.82;;;8.38;;
58621;SDS011;44389;51.578;5.456;2022-08-03T01:41:29;16.15;;;8.20;;
58621;SDS011;44389;51.578;5.456;2022-08-03T01:44:01;19.15;;;8.20;;
58621;SDS011;44389;51.578;5.456;2022-08-03T01:46:29;20.88;;;8.18;;
58621;SDS011;44389;51.578;5.456;2022-08-03T01:48:56;23.25;;;8.73;;
58621;SDS011;44389;51.578;5.456;2022-08-03T01:51:23;15.90;;;8.35;;
58621;SDS011;44389;51.578;5.456;2022-08-03T01:53:49;22.35;;;9.55;;
58621;SDS011;44389;51.578;5.456;2022-08-03T01:56:16;16.42;;;8.05;;
58621;SDS011;44389;51.578;5.456;2022-08-03T01:58:43;24.00;;;8.57;;
58621;SDS011;44389;51.578;5.456;2022-08-03T02:01:10;20.00;;;8.35;;
58621;SDS011;44389;51.578;5.456;2022-08-03T02:03:38;22.73;;;10.60;;
58621;SDS011;44389;51.578;5.456;2022-08-03T02:06:06;18.48;;;8.52;;
58621;SDS011;44389;51.578;5.456;2022-08-03T02:08:34;15.13;;;8.02;;
58621;SDS011;44389;51.578;5.456;2022-08-03T02:11:01;18.03;;;9.03;;
58621;SDS011;44389;51.578;5.456;2022-08-03T02:13:28;18.33;;;7.40;;
58621;SDS011;44389;51.578;5.456;2022-08-03T02:15:56;19.02;;;8.90;;
58621;SDS011;44389;51.578;5.456;2022-08-03T02:18:22;19.23;;;8.70;;
58621;SDS011;44389;51.578;5.456;2022-08-03T02:20:48;19.85;;;8.18;;
58621;SDS011;44389;51.578;5.456;2022-08-03T02:23:14;14.93;;;7.80;;
58621;SDS011;44389;51.578;5.456;2022-08-03T02:25:40;11.43;;;6.10;;
58621;SDS011;44389;51.578;5.456;2022-08-03T02:28:13;11.93;;;6.32;;
58621;SDS011;44389;51.578;5.456;2022-08-03T02:30:42;15.63;;;6.90;;
58621;SDS011;44389;51.578;5.456;2022-08-03T02:33:11;16.90;;;8.55;;
58621;SDS011;44389;51.578;5.456;2022-08-03T02:35:41;20.23;;;8.80;;
58621;SDS011;44389;51.578;5.456;2022-08-03T02:38:08;19.73;;;8.88;;
58621;SDS011;44389;51.578;5.456;2022-08-03T02:40:37;21.08;;;8.63;;
58621;SDS011;44389;51.578;5.456;2022-08-03T02:43:06;17.38;;;8.40;;
58621;SDS011;44389;51.578;5.456;2022-08-03T02:45:34;18.30;;;7.75;;
58621;SDS011;44389;51.578;5.456;2022-08-03T02:48:03;18.60;;;7.68;;
58621;SDS011;44389;51.578;5.456;2022-08-03T02:50:30;20.13;;;8.68;;
58621;SDS011;44389;51.578;5.456;2022-08-03T02:52:58;17.02;;;7.72;;
58621;SDS011;44389;51.578;5.456;2022-08-03T02:55:26;19.38;;;7.85;;
58621;SDS011;44389;51.578;5.456;2022-08-03T02:57:53;19.48;;;8.10;;
58621;SDS011;44389;51.578;5.456;2022-08-03T03:00:20;20.45;;;10.93;;
58621;SDS011;44389;51.578;5.456;2022-08-03T03:02:45;18.10;;;9.23;;
58621;SDS011;44389;51.578;5.456;2022-08-03T03:05:11;19.13;;;8.40;;
58621;SDS011;44389;51.578;5.456;2022-08-03T03:07:38;23.13;;;9.80;;
58621;SDS011;44389;51.578;5.456;2022-08-03T03:10:06;20.55;;;10.48;;
58621;SDS011;44389;51.578;5.456;2022-08-03T03:12:32;26.98;;;10.68;;
58621;SDS011;44389;51.578;5.456;2022-08-03T03:15:01;21.40;;;9.45;;
58621;SDS011;44389;51.578;5.456;2022-08-03T03:17:26;22.77;;;9.73;;
58621;SDS011;44389;51.578;5.456;2022-08-03T03:19:51;28.75;;;9.77;;
58621;SDS011;44389;51.578;5.456;2022-08-03T03:22:18;17.85;;;8.93;;
58621;SDS011;44389;51.578;5.456;2022-08-03T03:24:44;27.42;;;9.93;;
58621;SDS011;44389;51.578;5.456;2022-08-03T03:27:12;23.55;;;9.48;;
58621;SDS011;44389;51.578;5.456;2022-08-03T03:29:38;21.00;;;10.13;;
58621;SDS011;44389;51.578;5.456;2022-08-03T03:32:05;26.80;;;9.63;;
58621;SDS011;44389;51.578;5.456;2022-08-03T03:34:31;19.45;;;9.15;;
58621;SDS011;44389;51.578;5.456;2022-08-03T03:36:57;19.75;;;9.50;;
58621;SDS011;44389;51.578;5.456;2022-08-03T03:39:22;22.60;;;9.45;;
58621;SDS011;44389;51.578;5.456;2022-08-03T03:41:48;20.00;;;9.88;;
58621;SDS011;44389;51.578;5.456;2022-08-03T03:44:13;24.30;;;9.15;;
58621;SDS011;44389;51.578;5.456;2022-08-03T03:46:39;22.83;;;9.55;;
58621;SDS011;44389;51.578;5.456;2022-08-03T03:49:05;27.38;;;10.38;;
58621;SDS011;44389;51.578;5.456;2022-08-03T03:51:33;18.63;;;9.00;;
58621;SDS011;44389;51.578;5.456;2022-08-03T03:53:59;24.45;;;8.80;;
58621;SDS011;44389;51.578;5.456;2022-08-03T03:58:52;22.42;;;8.57;;
58621;SDS011;44389;51.578;5.456;2022-08-03T04:01:17;21.00;;;9.05;;
58621;SDS011;44389;51.578;5.456;2022-08-03T04:03:43;22.77;;;8.57;;
58621;SDS011;44389;51.578;5.456;2022-08-03T04:06:08;18.15;;;9.50;;
58621;SDS011;44389;51.578;5.456;2022-08-03T04:08:52;23.38;;;8.75;;
58621;SDS011;44389;51.578;5.456;2022-08-03T04:11:37;18.52;;;8.45;;
58621;SDS011;44389;51.578;5.456;2022-08-03T04:14:07;22.80;;;8.65;;
58621;SDS011;44389;51.578;5.456;2022-08-03T04:16:44;18.85;;;8.68;;
58621;SDS011;44389;51.578;5.456;2022-08-03T04:19:14;22.77;;;9.20;;
58621;SDS011;44389;51.578;5.456;2022-08-03T04:21:44;23.17;;;8.50;;
58621;SDS011;44389;51.578;5.456;2022-08-03T04:24:14;23.10;;;9.20;;
58621;SDS011;44389;51.578;5.456;2022-08-03T04:26:40;20.23;;;8.85;;
58621;SDS011;44389;51.578;5.456;2022-08-03T04:29:10;25.25;;;9.18;;
58621;SDS011;44389;51.578;5.456;2022-08-03T04:31:37;24.00;;;8.20;;
58621;SDS011;44389;51.578;5.456;2022-08-03T04:34:03;20.95;;;8.15;;
58621;SDS011;44389;51.578;5.456;2022-08-03T04:36:30;19.70;;;8.65;;
58621;SDS011;44389;51.578;5.456;2022-08-03T04:39:21;22.30;;;8.68;;
58621;SDS011;44389;51.578;5.456;2022-08-03T04:41:52;24.73;;;8.68;;
58621;SDS011;44389;51.578;5.456;2022-08-03T04:44:20;21.45;;;8.30;;
58621;SDS011;44389;51.578;5.456;2022-08-03T04:46:47;19.25;;;8.23;;
58621;SDS011;44389;51.578;5.456;2022-08-03T04:49:13;17.00;;;7.90;;
58621;SDS011;44389;51.578;5.456;2022-08-03T04:51:39;17.40;;;8.07;;
58621;SDS011;44389;51.578;5.456;2022-08-03T04:54:04;21.20;;;7.90;;
58621;SDS011;44389;51.578;5.456;2022-08-03T04:56:31;21.73;;;7.87;;
58621;SDS011;44389;51.578;5.456;2022-08-03T04:58:58;16.20;;;6.75;;
58621;SDS011;44389;51.578;5.456;2022-08-03T05:01:24;18.48;;;7.18;;
58621;SDS011;44389;51.578;5.456;2022-08-03T05:03:49;18.75;;;7.45;;
58621;SDS011;44389;51.578;5.456;2022-08-03T05:06:15;16.38;;;6.70;;
58621;SDS011;44389;51.578;5.456;2022-08-03T05:08:40;16.63;;;6.68;;
58621;SDS011;44389;51.578;5.456;2022-08-03T05:11:06;17.52;;;6.70;;
58621;SDS011;44389;51.578;5.456;2022-08-03T05:13:31;16.60;;;7.20;;
58621;SDS011;44389;51.578;5.456;2022-08-03T05:15:56;18.27;;;6.35;;
58621;SDS011;44389;51.578;5.456;2022-08-03T05:18:22;18.85;;;6.38;;
58621;SDS011;44389;51.578;5.456;2022-08-03T05:20:47;22.35;;;7.35;;
58621;SDS011;44389;51.578;5.456;2022-08-03T05:23:13;18.25;;;6.63;;
58621;SDS011;44389;51.578;5.456;2022-08-03T05:25:38;18.90;;;6.90;;
58621;SDS011;44389;51.578;5.456;2022-08-03T05:28:03;15.30;;;6.50;;
58621;SDS011;44389;51.578;5.456;2022-08-03T05:30:28;15.02;;;6.78;;
58621;SDS011;44389;51.578;5.456;2022-08-03T05:32:54;21.58;;;6.88;;
58621;SDS011;44389;51.578;5.456;2022-08-03T05:35:19;15.57;;;6.53;;
58621;SDS011;44389;51.578;5.456;2022-08-03T05:37:45;19.17;;;6.35;;
58621;SDS011;44389;51.578;5.456;2022-08-03T05:40:10;17.67;;;6.47;;
58621;SDS011;44389;51.578;5.456;2022-08-03T05:42:36;16.08;;;5.97;;
58621;SDS011;44389;51.578;5.456;2022-08-03T05:45:04;21.83;;;5.85;;
58621;SDS011;44389;51.578;5.456;2022-08-03T05:50:08;17.80;;;5.88;;
58621;SDS011;44389;51.578;5.456;2022-08-03T05:52:34;20.40;;;5.90;;
58621;SDS011;44389;51.578;5.456;2022-08-03T05:55:00;13.55;;;5.22;;
58621;SDS011;44389;51.578;5.456;2022-08-03T05:57:25;18.35;;;5.20;;
58621;SDS011;44389;51.578;5.456;2022-08-03T05:59:50;17.17;;;4.38;;
58621;SDS011;44389;51.578;5.456;2022-08-03T06:02:15;14.82;;;4.40;;
58621;SDS011;44389;51.578;5.456;2022-08-03T06:04:41;20.13;;;4.20;;
58621;SDS011;44389;51.578;5.456;2022-08-03T06:07:06;16.40;;;4.45;;
58621;SDS011;44389;51.578;5.456;2022-08-03T06:09:31;15.85;;;4.55;;
58621;SDS011;44389;51.578;5.456;2022-08-03T06:11:57;15.30;;;4.65;;
58621;SDS011;44389;51.578;5.456;2022-08-03T06:14:22;20.13;;;4.70;;
58621;SDS011;44389;51.578;5.456;2022-08-03T06:16:47;17.02;;;4.63;;
58621;SDS011;44389;51.578;5.456;2022-08-03T06:19:12;14.93;;;4.40;;
58621;SDS011;44389;51.578;5.456;2022-08-03T06:21:38;17.80;;;4.68;;
58621;SDS011;44389;51.578;5.456;2022-08-03T06:24:03;16.23;;;4.63;;
58621;SDS011;44389;51.578;5.456;2022-08-03T06:26:28;19.75;;;4.88;;
58621;SDS011;44389;51.578;5.456;2022-08-03T06:28:54;21.23;;;5.15;;
58621;SDS011;44389;51.578;5.456;2022-08-03T06:31:20;16.42;;;4.38;;
58621;SDS011;44389;51.578;5.456;2022-08-03T06:33:47;19.00;;;4.82;;
58621;SDS011;44389;51.578;5.456;2022-08-03T06:36:13;21.02;;;4.60;;
58621;SDS011;44389;51.578;5.456;2022-08-03T06:38:38;19.77;;;4.20;;
58621;SDS011;44389;51.578;5.456;2022-08-03T06:41:03;16.50;;;4.47;;
58621;SDS011;44389;51.578;5.456;2022-08-03T06:43:28;17.02;;;4.40;;
58621;SDS011;44389;51.578;5.456;2022-08-03T06:45:54;19.15;;;4.70;;
58621;SDS011;44389;51.578;5.456;2022-08-03T06:48:19;14.43;;;4.32;;
58621;SDS011;44389;51.578;5.456;2022-08-03T06:50:44;21.23;;;4.78;;
58621;SDS011;44389;51.578;5.456;2022-08-03T06:53:10;13.40;;;4.30;;
58621;SDS011;44389;51.578;5.456;2022-08-03T06:55:35;13.23;;;3.70;;
58621;SDS011;44389;51.578;5.456;2022-08-03T06:58:00;19.30;;;4.50;;
58621;SDS011;44389;51.578;5.456;2022-08-03T07:00:26;14.82;;;4.50;;
58621;SDS011;44389;51.578;5.456;2022-08-03T07:02:52;17.20;;;4.38;;
58621;SDS011;44389;51.578;5.456;2022-08-03T07:05:17;15.43;;;4.43;;
58621;SDS011;44389;51.578;5.456;2022-08-03T07:07:43;18.33;;;5.10;;
58621;SDS011;44389;51.578;5.456;2022-08-03T07:10:09;16.85;;;4.00;;
58621;SDS011;44389;51.578;5.456;2022-08-03T07:12:35;17.67;;;4.28;;
58621;SDS011;44389;51.578;5.456;2022-08-03T07:15:05;19.77;;;4.93;;
58621;SDS011;44389;51.578;5.456;2022-08-03T07:17:32;20.88;;;4.45;;
58621;SDS011;44389;51.578;5.456;2022-08-03T07:19:59;20.98;;;4.30;;
58621;SDS011;44389;51.578;5.456;2022-08-03T07:22:25;19.27;;;4.43;;
58621;SDS011;44389;51.578;5.456;2022-08-03T07:24:51;22.92;;;3.63;;
58621;SDS011;44389;51.578;5.456;2022-08-03T07:27:16;20.15;;;3.80;;
58621;SDS011;44389;51.578;5.456;2022-08-03T07:29:41;18.92;;;4.00;;
58621;SDS011;44389;51.578;5.456;2022-08-03T07:32:07;16.02;;;3.55;;
58621;SDS011;44389;51.578;5.456;2022-08-03T07:34:32;18.10;;;3.80;;
58621;SDS011;44389;51.578;5.456;2022-08-03T07:36:57;14.60;;;3.40;;
58621;SDS011;44389;51.578;5.456;2022-08-03T07:39:23;24.83;;;4.85;;
58621;SDS011;44389;51.578;5.456;2022-08-03T07:41:48;15.95;;;3.15;;
58621;SDS011;44389;51.578;5.456;2022-08-03T07:44:15;16.98;;;3.38;;
58621;SDS011;44389;51.578;5.456;2022-08-03T07:46:41;16.77;;;3.30;;
58621;SDS011;44389;51.578;5.456;2022-08-03T07:49:06;18.30;;;3.35;;
58621;SDS011;44389;51.578;5.456;2022-08-03T07:51:32;18.85;;;3.80;;
58621;SDS011;44389;51.578;5.456;2022-08-03T07:53:57;18.77;;;3.58;;
58621;SDS011;44389;51.578;5.456;2022-08-03T07:56:23;16.73;;;3.42;;
58621;SDS011;44389;51.578;5.456;2022-08-03T07:58:52;16.25;;;3.25;;
58621;SDS011;44389;51.578;5.456;2022-08-03T08:01:18;18.83;;;3.60;;
58621;SDS011;44389;51.578;5.456;2022-08-03T08:03:44;18.45;;;3.50;;
58621;SDS011;44389;51.578;5.456;2022-08-03T08:06:13;23.05;;;3.63;;
58621;SDS011;44389;51.578;5.456;2022-08-03T08:08:38;15.60;;;3.28;;
58621;SDS011;44389;51.578;5.456;2022-08-03T08:11:04;15.07;;;3.10;;
58621;SDS011;44389;51.578;5.456;2022-08-03T08:13:30;18.70;;;3.42;;
58621;SDS011;44389;51.578;5.456;2022-08-03T08:15:55;15.13;;;2.92;;
58621;SDS011;44389;51.578;5.456;2022-08-03T08:18:21;16.63;;;3.40;;
58621;SDS011;44389;51.578;5.456;2022-08-03T08:20:48;19.08;;;3.40;;
58621;SDS011;44389;51.578;5.456;2022-08-03T08:23:13;11.32;;;2.85;;
58621;SDS011;44389;51.578;5.456;2022-08-03T08:25:39;20.35;;;3.63;;
58621;SDS011;44389;51.578;5.456;2022-08-03T08:28:04;21.25;;;3.85;;
58621;SDS011;44389;51.578;5.456;2022-08-03T08:30:31;14.55;;;2.92;;
58621;SDS011;44389;51.578;5.456;2022-08-03T08:32:57;20.65;;;3.80;;
58621;SDS011;44389;51.578;5.456;2022-08-03T08:35:22;19.60;;;3.65;;
58621;SDS011;44389;51.578;5.456;2022-08-03T08:37:48;17.60;;;3.30;;
58621;SDS011;44389;51.578;5.456;2022-08-03T08:40:13;15.85;;;2.78;;
58621;SDS011;44389;51.578;5.456;2022-08-03T08:42:39;13.88;;;3.17;;
58621;SDS011;44389;51.578;5.456;2022-08-03T08:45:06;16.02;;;3.00;;
58621;SDS011;44389;51.578;5.456;2022-08-03T08:47:33;19.25;;;3.35;;
58621;SDS011;44389;51.578;5.456;2022-08-03T08:50:01;25.05;;;3.78;;
58621;SDS011;44389;51.578;5.456;2022-08-03T08:52:27;17.63;;;2.97;;
58621;SDS011;44389;51.578;5.456;2022-08-03T08:54:54;18.87;;;3.77;;
58621;SDS011;44389;51.578;5.456;2022-08-03T08:57:23;16.33;;;2.85;;
58621;SDS011;44389;51.578;5.456;2022-08-03T08:59:52;12.30;;;3.05;;
58621;SDS011;44389;51.578;5.456;2022-08-03T09:02:20;19.77;;;3.33;;
58621;SDS011;44389;51.578;5.456;2022-08-03T09:04:46;15.60;;;3.20;;
58621;SDS011;44389;51.578;5.456;2022-08-03T09:07:12;15.65;;;3.13;;
58621;SDS011;44389;51.578;5.456;2022-08-03T09:09:38;15.27;;;2.85;;
58621;SDS011;44389;51.578;5.456;2022-08-03T09:12:03;15.15;;;2.78;;
58621;SDS011;44389;51.578;5.456;2022-08-03T09:14:29;17.42;;;2.67;;
58621;SDS011;44389;51.578;5.456;2022-08-03T09:16:55;15.32;;;3.65;;
58621;SDS011;44389;51.578;5.456;2022-08-03T09:19:24;17.15;;;2.63;;
58621;SDS011;44389;51.578;5.456;2022-08-03T09:22:06;18.02;;;2.90;;
58621;SDS011;44389;51.578;5.456;2022-08-03T09:24:32;14.63;;;2.90;;
58621;SDS011;44389;51.578;5.456;2022-08-03T09:26:57;14.20;;;2.80;;
58621;SDS011;44389;51.578;5.456;2022-08-03T09:29:22;17.02;;;3.13;;
58621;SDS011;44389;51.578;5.456;2022-08-03T09:31:48;17.10;;;2.95;;
58621;SDS011;44389;51.578;5.456;2022-08-03T09:34:24;18.40;;;2.67;;
58621;SDS011;44389;51.578;5.456;2022-08-03T09:36:52;15.80;;;3.30;;
58621;SDS011;44389;51.578;5.456;2022-08-03T09:42:09;11.98;;;3.10;;
58621;SDS011;44389;51.578;5.456;2022-08-03T09:44:36;22.38;;;3.85;;
58621;SDS011;44389;51.578;5.456;2022-08-03T09:47:03;15.15;;;2.92;;
58621;SDS011;44389;51.578;5.456;2022-08-03T09:49:30;22.67;;;3.65;;
58621;SDS011;44389;51.578;5.456;2022-08-03T09:51:56;27.10;;;3.65;;
58621;SDS011;44389;51.578;5.456;2022-08-03T09:54:26;23.00;;;3.63;;
58621;SDS011;44389;51.578;5.456;2022-08-03T09:56:52;21.75;;;3.50;;
58621;SDS011;44389;51.578;5.456;2022-08-03T09:59:28;23.00;;;3.63;;
58621;SDS011;44389;51.578;5.456;2022-08-03T10:01:54;16.35;;;3.28;;
58621;SDS011;44389;51.578;5.456;2022-08-03T10:04:21;26.63;;;3.47;;
58621;SDS011;44389;51.578;5.456;2022-08-03T10:09:31;19.15;;;3.30;;
58621;SDS011;44389;51.578;5.456;2022-08-03T10:11:57;20.83;;;3.45;;
58621;SDS011;44389;51.578;5.456;2022-08-03T10:14:31;21.02;;;3.35;;
58621;SDS011;44389;51.578;5.456;2022-08-03T10:16:57;19.23;;;3.60;;
58621;SDS011;44389;51.578;5.456;2022-08-03T10:19:22;19.17;;;3.93;;
58621;SDS011;44389;51.578;5.456;2022-08-03T10:24:19;21.70;;;3.08;;
58621;SDS011;44389;51.578;5.456;2022-08-03T10:26:49;15.98;;;3.15;;
58621;SDS011;44389;51.578;5.456;2022-08-03T10:29:17;16.63;;;2.70;;
58621;SDS011;44389;51.578;5.456;2022-08-03T10:31:48;19.00;;;3.42;;
58621;SDS011;44389;51.578;5.456;2022-08-03T10:34:19;23.60;;;3.10;;
58621;SDS011;44389;51.578;5.456;2022-08-03T10:36:48;17.27;;;3.20;;
58621;SDS011;44389;51.578;5.456;2022-08-03T10:39:17;19.55;;;3.20;;
58621;SDS011;44389;51.578;5.456;2022-08-03T10:41:45;20.40;;;3.65;;
58621;SDS011;44389;51.578;5.456;2022-08-03T10:44:16;24.33;;;3.20;;
58621;SDS011;44389;51.578;5.456;2022-08-03T10:46:43;17.92;;;3.17;;
58621;SDS011;44389;51.578;5.456;2022-08-03T10:49:14;23.85;;;3.80;;
58621;SDS011;44389;51.578;5.456;2022-08-03T10:51:40;19.85;;;3.25;;
58621;SDS011;44389;51.578;5.456;2022-08-03T10:54:33;31.00;;;3.70;;
58621;SDS011;44389;51.578;5.456;2022-08-03T10:57:42;18.80;;;3.25;;
58621;SDS011;44389;51.578;5.456;2022-08-03T11:00:18;17.13;;;3.25;;
58621;SDS011;44389;51.578;5.456;2022-08-03T11:05:44;18.70;;;3.20;;
58621;SDS011;44389;51.578;5.456;2022-08-03T11:08:29;17.27;;;3.00;;
58621;SDS011;44389;51.578;5.456;2022-08-03T11:11:44;18.92;;;3.60;;
58621;SDS011;44389;51.578;5.456;2022-08-03T11:13:57;15.70;;;2.28;;
58621;SDS011;44389;51.578;5.456;2022-08-03T11:16:32;16.00;;;2.70;;
58621;SDS011;44389;51.578;5.456;2022-08-03T11:19:03;11.90;;;2.40;;
58621;SDS011;44389;51.578;5.456;2022-08-03T11:21:51;13.45;;;2.88;;
58621;SDS011;44389;51.578;5.456;2022-08-03T11:29:38;14.73;;;2.40;;
58621;SDS011;44389;51.578;5.456;2022-08-03T11:38:00;14.93;;;2.47;;
58621;SDS011;44389;51.578;5.456;2022-08-03T11:45:55;8.95;;;2.00;;
58621;SDS011;44389;51.578;5.456;2022-08-03T11:48:20;10.63;;;2.00;;
58621;SDS011;44389;51.578;5.456;2022-08-03T11:50:46;14.63;;;2.25;;
58621;SDS011;44389;51.578;5.456;2022-08-03T11:53:17;13.32;;;2.28;;
58621;SDS011;44389;51.578;5.456;2022-08-03T11:55:43;12.10;;;2.58;;
58621;SDS011;44389;51.578;5.456;2022-08-03T11:58:19;8.40;;;2.17;;
58621;SDS011;44389;51.578;5.456;2022-08-03T12:00:46;11.35;;;2.00;;
58621;SDS011;44389;51.578;5.456;2022-08-03T12:03:13;13.43;;;2.10;;
58621;SDS011;44389;51.578;5.456;2022-08-03T12:08:08;7.70;;;1.85;;
58621;SDS011;44389;51.578;5.456;2022-08-03T12:10:35;11.52;;;2.00;;
58621;SDS011;44389;51.578;5.456;2022-08-03T12:13:02;13.18;;;2.28;;
58621;SDS011;44389;51.578;5.456;2022-08-03T12:15:33;14.73;;;2.55;;
58621;SDS011;44389;51.578;5.456;2022-08-03T12:17:59;15.68;;;2.30;;
58621;SDS011;44389;51.578;5.456;2022-08-03T12:20:26;12.90;;;2.10;;
58621;SDS011;44389;51.578;5.456;2022-08-03T12:22:53;14.98;;;3.35;;
58621;SDS011;44389;51.578;5.456;2022-08-03T12:25:20;9.80;;;1.98;;
58621;SDS011;44389;51.578;5.456;2022-08-03T12:27:46;12.18;;;1.83;;
58621;SDS011;44389;51.578;5.456;2022-08-03T12:30:12;11.80;;;2.30;;
58621;SDS011;44389;51.578;5.456;2022-08-03T12:32:37;15.93;;;2.10;;
58621;SDS011;44389;51.578;5.456;2022-08-03T12:35:03;11.90;;;2.17;;
58621;SDS011;44389;51.578;5.456;2022-08-03T12:37:29;10.48;;;2.35;;
58621;SDS011;44389;51.578;5.456;2022-08-03T12:39:56;12.00;;;2.08;;
58621;SDS011;44389;51.578;5.456;2022-08-03T12:42:35;13.35;;;2.22;;
58621;SDS011;44389;51.578;5.456;2022-08-03T12:45:21;11.82;;;2.70;;
58621;SDS011;44389;51.578;5.456;2022-08-03T12:47:49;9.32;;;1.85;;
58621;SDS011;44389;51.578;5.456;2022-08-03T12:53:01;6.93;;;1.80;;
58621;SDS011;44389;51.578;5.456;2022-08-03T12:55:28;10.85;;;1.90;;
58621;SDS011;44389;51.578;5.456;2022-08-03T12:58:01;8.75;;;2.10;;
58621;SDS011;44389;51.578;5.456;2022-08-03T13:00:27;7.45;;;1.60;;
58621;SDS011;44389;51.578;5.456;2022-08-03T13:05:31;8.50;;;2.35;;
58621;SDS011;44389;51.578;5.456;2022-08-03T13:07:56;9.53;;;1.87;;
58621;SDS011;44389;51.578;5.456;2022-08-03T13:10:26;11.43;;;2.00;;
58621;SDS011;44389;51.578;5.456;2022-08-03T13:12:55;6.47;;;2.00;;
58621;SDS011;44389;51.578;5.456;2022-08-03T13:15:23;10.65;;;1.75;;
58621;SDS011;44389;51.578;5.456;2022-08-03T13:17:50;7.45;;;1.98;;
58621;SDS011;44389;51.578;5.456;2022-08-03T13:20:16;8.85;;;1.98;;
58621;SDS011;44389;51.578;5.456;2022-08-03T13:22:41;11.50;;;2.53;;
58621;SDS011;44389;51.578;5.456;2022-08-03T13:25:11;7.68;;;1.90;;
58621;SDS011;44389;51.578;5.456;2022-08-03T13:27:36;9.03;;;2.20;;
58621;SDS011;44389;51.578;5.456;2022-08-03T13:30:01;8.27;;;1.80;;
58621;SDS011;44389;51.578;5.456;2022-08-03T13:32:27;9.70;;;1.73;;
58621;SDS011;44389;51.578;5.456;2022-08-03T13:34:53;11.70;;;2.37;;
58621;SDS011;44389;51.578;5.456;2022-08-03T13:37:18;7.90;;;1.93;;
58621;SDS011;44389;51.578;5.456;2022-08-03T13:39:43;12.27;;;1.70;;
58621;SDS011;44389;51.578;5.456;2022-08-03T13:42:09;7.20;;;1.33;;
58621;SDS011;44389;51.578;5.456;2022-08-03T13:44:34;8.93;;;1.77;;
58621;SDS011;44389;51.578;5.456;2022-08-03T13:47:02;8.00;;;2.25;;
58621;SDS011;44389;51.578;5.456;2022-08-03T13:49:28;8.50;;;1.80;;
58621;SDS011;44389;51.578;5.456;2022-08-03T13:51:54;6.70;;;1.73;;
58621;SDS011;44389;51.578;5.456;2022-08-03T13:54:19;8.35;;;1.90;;
58621;SDS011;44389;51.578;5.456;2022-08-03T13:56:45;9.07;;;1.70;;
58621;SDS011;44389;51.578;5.456;2022-08-03T13:59:17;9.70;;;1.80;;
58621;SDS011;44389;51.578;5.456;2022-08-03T14:01:46;6.57;;;1.88;;
58621;SDS011;44389;51.578;5.456;2022-08-03T14:04:12;8.05;;;2.20;;
58621;SDS011;44389;51.578;5.456;2022-08-03T14:06:38;6.50;;;1.70;;
58621;SDS011;44389;51.578;5.456;2022-08-03T14:09:03;8.30;;;1.63;;
58621;SDS011;44389;51.578;5.456;2022-08-03T14:11:29;13.60;;;1.80;;
58621;SDS011;44389;51.578;5.456;2022-08-03T14:13:54;9.27;;;2.00;;
58621;SDS011;44389;51.578;5.456;2022-08-03T14:16:19;13.20;;;1.50;;
58621;SDS011;44389;51.578;5.456;2022-08-03T14:18:45;8.03;;;1.63;;
58621;SDS011;44389;51.578;5.456;2022-08-03T14:21:10;8.50;;;2.00;;
58621;SDS011;44389;51.578;5.456;2022-08-03T14:23:36;9.15;;;2.25;;
58621;SDS011;44389;51.578;5.456;2022-08-03T14:26:02;6.28;;;1.73;;
58621;SDS011;44389;51.578;5.456;2022-08-03T14:28:31;9.25;;;1.90;;
58621;SDS011;44389;51.578;5.456;2022-08-03T14:30:57;7.50;;;1.83;;
58621;SDS011;44389;51.578;5.456;2022-08-03T14:33:22;9.43;;;1.63;;
58621;SDS011;44389;51.578;5.456;2022-08-03T14:35:48;8.52;;;1.65;;
58621;SDS011;44389;51.578;5.456;2022-08-03T14:38:13;12.95;;;1.95;;
58621;SDS011;44389;51.578;5.456;2022-08-03T14:40:39;12.85;;;1.95;;
58621;SDS011;44389;51.578;5.456;2022-08-03T14:43:04;7.63;;;1.90;;
58621;SDS011;44389;51.578;5.456;2022-08-03T14:45:30;5.93;;;1.43;;
58621;SDS011;44389;51.578;5.456;2022-08-03T14:47:55;5.47;;;1.40;;
58621;SDS011;44389;51.578;5.456;2022-08-03T14:50:20;7.60;;;2.07;;
58621;SDS011;44389;51.578;5.456;2022-08-03T14:52:47;8.90;;;1.73;;
58621;SDS011;44389;51.578;5.456;2022-08-03T14:55:12;12.67;;;1.90;;
58621;SDS011;44389;51.578;5.456;2022-08-03T14:57:37;4.60;;;1.43;;
58621;SDS011;44389;51.578;5.456;2022-08-03T15:00:03;11.00;;;1.87;;
58621;SDS011;44389;51.578;5.456;2022-08-03T15:02:29;8.77;;;1.42;;
58621;SDS011;44389;51.578;5.456;2022-08-03T15:04:54;5.37;;;1.53;;
58621;SDS011;44389;51.578;5.456;2022-08-03T15:07:20;9.47;;;1.77;;
58621;SDS011;44389;51.578;5.456;2022-08-03T15:09:45;8.43;;;1.70;;
58621;SDS011;44389;51.578;5.456;2022-08-03T15:12:10;6.83;;;1.63;;
58621;SDS011;44389;51.578;5.456;2022-08-03T15:14:38;10.90;;;1.65;;
58621;SDS011;44389;51.578;5.456;2022-08-03T15:17:04;6.57;;;2.60;;
58621;SDS011;44389;51.578;5.456;2022-08-03T15:19:33;10.32;;;1.70;;
58621;SDS011;44389;51.578;5.456;2022-08-03T15:21:58;5.77;;;1.60;;
58621;SDS011;44389;51.578;5.456;2022-08-03T15:24:24;7.50;;;1.60;;
58621;SDS011;44389;51.578;5.456;2022-08-03T15:26:50;6.67;;;1.60;;